Time;durP1;ratioP1;P1;durP2;ratioP2;P2;SDS_P1;SDS_P2;PMS_P1;PMS_P2;Temp;Humidity;BMP_temperature;BMP_pressure;BME280_temperature;BME280_humidity;BME280_pressure;Samples;Min_cycle;Max_cycle;Signal;HPM_P1;HPM_P2
2023/06/19 00:00:39;;;;;;;9.02;7.40;;;;;;;16.43;nan;100499.94;5066553;28;20034;-72
2023/06/19 00:03:05;;;;;;;9.85;7.05;;;;;;;16.35;nan;100509.19;5066469;28;20453;-72
2023/06/19 00:05:30;;;;;;;11.75;6.90;;;;;;;16.27;nan;100507.06;5065465;28;20028;-72
2023/06/19 00:07:55;;;;;;;9.32;6.82;;;;;;;16.21;nan;100508.91;5045751;28;20052;-72
2023/06/19 00:10:21;;;;;;;9.02;7.00;;;;;;;16.13;nan;100504.84;5065882;28;20027;-72
2023/06/19 00:12:46;;;;;;;12.43;6.63;;;;;;;16.11;nan;100503.53;5046154;28;20016;-72
2023/06/19 00:15:12;;;;;;;13.20;7.10;;;;;;;16.05;nan;100507.22;5060808;28;20032;-74
2023/06/19 00:17:37;;;;;;;12.45;6.72;;;;;;;16.00;nan;100507.19;5066037;28;20062;-71
2023/06/19 00:20:05;;;;;;;12.05;6.95;;;;;;;15.91;nan;100498.91;5064168;28;20032;-72
2023/06/19 00:22:31;;;;;;;10.43;6.65;;;;;;;15.81;nan;100499.66;5064624;28;20094;-71
2023/06/19 00:24:56;;;;;;;13.88;6.68;;;;;;;15.80;nan;100503.34;5064063;28;20028;-71
2023/06/19 00:27:22;;;;;;;8.50;6.60;;;;;;;15.77;nan;100503.88;5064655;28;20033;-71
2023/06/19 00:29:47;;;;;;;9.25;6.18;;;;;;;15.68;nan;100495.59;5061675;28;20028;-72
2023/06/19 00:32:13;;;;;;;11.00;6.90;;;;;;;15.60;nan;100487.28;5048249;28;20029;-72
2023/06/19 00:34:38;;;;;;;8.82;6.97;;;;;;;15.59;nan;100485.69;5065999;28;20097;-72
2023/06/19 00:37:04;;;;;;;8.38;6.97;;;;;;;15.56;nan;100486.19;5063440;28;20198;-70
2023/06/19 00:39:29;;;;;;;10.35;6.97;;;;;;;15.46;nan;100471.78;5046942;28;20107;-72
2023/06/19 00:41:55;;;;;;;10.82;7.40;;;;;;;15.54;nan;100494.44;5062979;28;20123;-72
2023/06/19 00:44:22;;;;;;;12.25;7.45;;;;;;;15.52;nan;100489.38;5065085;28;20028;-72
2023/06/19 00:46:51;;;;;;;13.52;7.15;;;;;;;15.33;nan;100453.69;5064540;28;20538;-72
2023/06/19 00:49:16;;;;;;;12.38;7.38;;;;;;;15.42;nan;100473.38;5062508;28;20028;-72
2023/06/19 00:51:42;;;;;;;13.02;7.38;;;;;;;15.42;nan;100476.03;5064041;28;20652;-73
2023/06/19 00:54:08;;;;;;;10.98;7.00;;;;;;;15.46;nan;100493.03;5065626;28;20036;-72
2023/06/19 00:56:36;;;;;;;10.40;6.72;;;;;;;15.43;nan;100482.13;5065228;28;20017;-72
2023/06/19 00:59:07;;;;;;;15.48;6.78;;;;;;;15.37;nan;100489.28;5046868;28;20039;-72
2023/06/19 01:01:33;;;;;;;7.95;6.32;;;;;;;15.34;nan;100494.28;5064903;28;20044;-73
2023/06/19 01:03:59;;;;;;;8.05;6.45;;;;;;;15.39;nan;100496.97;5064785;28;20036;-73
2023/06/19 01:06:37;;;;;;;13.45;6.85;;;;;;;15.41;nan;100500.16;5043900;28;20029;-72
2023/06/19 01:09:07;;;;;;;14.50;6.90;;;;;;;15.36;nan;100495.63;5058192;28;20433;-71
2023/06/19 01:11:33;;;;;;;;;;;;;;;15.42;nan;100502.56;5064912;28;20033;-72
2023/06/19 01:14:06;;;;;;;13.10;6.75;;;;;;;15.41;nan;100497.50;5064902;28;19924;-72
2023/06/19 01:16:32;;;;;;;11.23;6.70;;;;;;;15.34;nan;100484.44;5064598;28;20062;-73
2023/06/19 01:18:58;;;;;;;12.68;6.57;;;;;;;15.40;nan;100496.72;5059857;28;20036;-73
2023/06/19 01:21:23;;;;;;;9.30;6.15;;;;;;;15.37;nan;100491.94;5063819;28;20025;-73
2023/06/19 01:23:49;;;;;;;11.38;6.80;;;;;;;15.33;nan;100485.53;5061458;28;20131;-73
2023/06/19 01:26:16;;;;;;;10.63;6.28;;;;;;;15.36;nan;100500.91;5045755;28;20043;-72
2023/06/19 01:28:44;;;;;;;11.18;6.10;;;;;;;15.28;nan;100490.78;5045646;28;20029;-73
2023/06/19 01:31:15;;;;;;;9.10;6.40;;;;;;;15.13;nan;100464.91;5063975;28;20035;-72
2023/06/19 01:33:43;;;;;;;10.57;6.38;;;;;;;15.32;nan;100502.47;5045049;28;20028;-73
2023/06/19 01:36:09;;;;;;;9.18;6.60;;;;;;;15.29;nan;100493.16;5064600;28;20028;-72
2023/06/19 01:38:36;;;;;;;12.65;6.40;;;;;;;15.24;nan;100490.47;5063007;28;20670;-73
2023/06/19 01:41:03;;;;;;;11.85;6.68;;;;;;;15.19;nan;100484.34;5047886;28;20488;-72
2023/06/19 01:43:31;;;;;;;11.43;6.20;;;;;;;15.26;nan;100491.03;5068296;28;20025;-72
2023/06/19 01:45:57;;;;;;;13.20;6.75;;;;;;;15.22;nan;100492.59;5049956;28;20549;-72
2023/06/19 01:48:23;;;;;;;12.57;6.47;;;;;;;15.21;nan;100490.19;5068768;28;20029;-72
2023/06/19 01:50:48;;;;;;;13.82;7.10;;;;;;;15.14;nan;100484.31;5069052;28;20067;-73
2023/06/19 01:53:14;;;;;;;12.48;7.32;;;;;;;15.16;nan;100487.50;5065391;28;20671;-73
2023/06/19 01:55:40;;;;;;;10.45;7.90;;;;;;;15.08;nan;100486.09;5068974;28;20081;-73
2023/06/19 01:58:05;;;;;;;10.32;7.13;;;;;;;15.08;nan;100486.91;5047516;28;20032;-72
2023/06/19 02:00:35;;;;;;;13.77;8.63;;;;;;;15.08;nan;100494.88;5068296;28;20051;-73
2023/06/19 02:03:00;;;;;;;11.00;8.57;;;;;;;14.99;nan;100488.44;5069297;28;20646;-73
2023/06/19 02:05:26;;;;;;;13.63;8.40;;;;;;;14.94;nan;100483.09;5068160;28;20024;-74
2023/06/19 02:07:51;;;;;;;18.15;9.57;;;;;;;14.92;nan;100489.66;5069220;28;20036;-73
2023/06/19 02:10:16;;;;;;;11.73;8.90;;;;;;;14.83;nan;100486.69;5067486;28;20644;-73
2023/06/19 02:12:42;;;;;;;13.00;9.15;;;;;;;14.77;nan;100487.66;5069457;28;20021;-72
2023/06/19 02:15:08;;;;;;;15.18;9.30;;;;;;;14.68;nan;100482.03;5064311;28;20039;-73
2023/06/19 02:17:33;;;;;;;17.25;10.32;;;;;;;14.77;nan;100492.97;5067920;28;20425;-73
2023/06/19 02:19:58;;;;;;;20.25;9.57;;;;;;;14.78;nan;100484.78;5068010;28;20117;-73
2023/06/19 02:22:24;;;;;;;12.07;9.02;;;;;;;14.80;nan;100492.50;5067838;28;20028;-73
2023/06/19 02:24:49;;;;;;;15.52;9.20;;;;;;;14.75;nan;100477.34;5066990;28;20028;-73
2023/06/19 02:27:15;;;;;;;16.63;9.52;;;;;;;14.78;nan;100487.44;5050757;28;20466;-72
2023/06/19 02:29:41;;;;;;;12.32;9.05;;;;;;;14.61;nan;100465.53;5067326;28;20147;-76
2023/06/19 02:32:07;;;;;;;16.85;9.70;;;;;;;14.81;nan;100497.53;5066450;28;20112;-75
2023/06/19 02:34:32;;;;;;;15.40;9.48;;;;;;;14.82;nan;100498.31;5046695;28;20104;-74
2023/06/19 02:36:58;;;;;;;16.35;10.52;;;;;;;14.82;nan;100500.97;5067838;28;20028;-75
2023/06/19 02:39:23;;;;;;;14.95;9.45;;;;;;;14.77;nan;100490.31;5067298;28;20029;-74
2023/06/19 02:41:49;;;;;;;13.40;9.25;;;;;;;14.77;nan;100495.63;5068195;28;20059;-75
2023/06/19 02:44:14;;;;;;;15.85;9.27;;;;;;;14.76;nan;100494.84;5049685;28;20732;-75
2023/06/19 02:46:40;;;;;;;14.93;9.10;;;;;;;14.68;nan;100497.94;5067649;28;20031;-75
2023/06/19 02:49:05;;;;;;;15.48;9.07;;;;;;;14.65;nan;100501.06;5067890;28;20044;-75
2023/06/19 02:51:31;;;;;;;13.30;8.82;;;;;;;14.44;nan;100470.91;5064924;28;20029;-75
2023/06/19 02:53:56;;;;;;;17.50;8.77;;;;;;;14.59;nan;100494.94;5068664;28;20021;-75
2023/06/19 02:56:22;;;;;;;15.57;9.55;;;;;;;14.61;nan;100495.47;5048038;28;20031;-74
2023/06/19 02:58:48;;;;;;;15.13;9.07;;;;;;;14.60;nan;100496.50;5067263;28;20028;-75
2023/06/19 03:01:13;;;;;;;19.38;9.10;;;;;;;14.59;nan;100497.56;5067335;28;20048;-75
2023/06/19 03:03:40;;;;;;;14.18;8.80;;;;;;;14.54;nan;100500.16;5067365;28;20032;-74
2023/06/19 03:06:06;;;;;;;15.80;8.65;;;;;;;14.56;nan;100499.94;5067315;28;20044;-75
2023/06/19 03:08:36;;;;;;;15.43;8.77;;;;;;;14.59;nan;100502.88;5064843;28;20028;-75
2023/06/19 03:11:05;;;;;;;16.33;8.98;;;;;;;14.59;nan;100494.94;5066325;28;20434;-75
2023/06/19 03:13:53;;;;;;;13.35;9.18;;;;;;;14.61;nan;100494.69;5066556;28;20027;-75
2023/06/19 03:16:19;;;;;;;18.42;9.27;;;;;;;14.59;nan;100494.94;5067208;28;20040;-74
2023/06/19 03:18:45;;;;;;;14.05;8.88;;;;;;;14.59;nan;100504.72;5067040;28;20359;-74
2023/06/19 03:21:15;;;;;;;18.42;10.15;;;;;;;14.51;nan;100490.06;5067039;28;20039;-75
2023/06/19 03:23:43;;;;;;;16.42;10.00;;;;;;;14.58;nan;100505.75;5046691;28;20513;-75
2023/06/19 03:26:10;;;;;;;23.73;10.82;;;;;;;14.54;nan;100504.69;5046517;28;20039;-74
2023/06/19 03:28:36;;;;;;;15.25;9.55;;;;;;;14.51;nan;100511.25;5067241;28;20024;-75
2023/06/19 03:31:01;;;;;;;16.35;9.60;;;;;;;14.45;nan;100494.47;5066275;28;20039;-75
2023/06/19 03:33:27;;;;;;;16.48;9.85;;;;;;;14.43;nan;100488.63;5066501;28;20547;-75
2023/06/19 03:35:52;;;;;;;17.08;9.60;;;;;;;14.50;nan;100491.09;5067370;28;20031;-74
2023/06/19 03:38:18;;;;;;;13.93;10.07;;;;;;;14.50;nan;100491.09;5062815;28;20593;-75
2023/06/19 03:40:43;;;;;;;14.63;10.63;;;;;;;14.57;nan;100499.66;5048282;28;20102;-75
2023/06/19 03:43:08;;;;;;;16.88;10.02;;;;;;;14.54;nan;100496.72;5046982;28;20359;-75
2023/06/19 03:45:34;;;;;;;18.25;10.35;;;;;;;14.61;nan;100497.34;5067010;28;20547;-75
2023/06/19 03:47:59;;;;;;;18.42;10.82;;;;;;;14.60;nan;100493.88;5064978;28;20111;-75
2023/06/19 03:50:25;;;;;;;15.50;11.20;;;;;;;14.58;nan;100482.75;5065465;28;20555;-75
2023/06/19 03:52:50;;;;;;;19.58;11.68;;;;;;;14.62;nan;100485.69;5047198;28;20032;-75
2023/06/19 03:55:15;;;;;;;19.85;12.07;;;;;;;14.67;nan;100491.03;5067269;28;20024;-75
2023/06/19 03:57:41;;;;;;;18.73;12.07;;;;;;;14.67;nan;100489.16;5048025;28;20036;-75
2023/06/19 04:00:07;;;;;;;17.60;12.40;;;;;;;14.71;nan;100488.69;5063010;28;20036;-75
2023/06/19 04:02:34;;;;;;;17.77;12.15;;;;;;;14.75;nan;100492.41;5063114;28;20047;-75
2023/06/19 04:04:59;;;;;;;16.90;11.85;;;;;;;14.78;nan;100498.03;5050429;28;20701;-75
2023/06/19 04:07:24;;;;;;;22.98;13.13;;;;;;;14.87;nan;100501.03;5064746;28;20024;-76
2023/06/19 04:09:50;;;;;;;22.05;12.70;;;;;;;14.88;nan;100487.53;5065344;28;20108;-75
2023/06/19 04:12:15;;;;;;;16.25;12.05;;;;;;;15.32;nan;100547.56;5061875;28;20542;-76
2023/06/19 04:14:41;;;;;;;19.38;12.75;;;;;;;15.00;nan;100482.06;5062343;28;20028;-74
2023/06/19 04:17:06;;;;;;;19.08;11.98;;;;;;;15.14;nan;100500.22;5061923;28;20021;-75
2023/06/19 04:19:31;;;;;;;19.52;12.00;;;;;;;15.17;nan;100497.84;5063810;28;20474;-74
2023/06/19 04:21:57;;;;;;;18.60;12.18;;;;;;;15.26;nan;100498.19;5064731;28;20032;-75
2023/06/19 04:24:22;;;;;;;23.98;12.40;;;;;;;15.30;nan;100496.66;5050021;28;20434;-76
2023/06/19 04:26:47;;;;;;;26.38;13.13;;;;;;;15.45;nan;100506.56;5065275;28;20170;-76
2023/06/19 04:29:16;;;;;;;17.75;11.50;;;;;;;15.54;nan;100507.69;5065825;28;20111;-76
2023/06/19 04:31:46;;;;;;;17.92;11.90;;;;;;;15.59;nan;100502.41;5064603;28;20032;-75
2023/06/19 04:34:14;;;;;;;17.40;12.48;;;;;;;15.65;nan;100505.91;5063484;28;20197;-75
2023/06/19 04:36:39;;;;;;;18.20;12.07;;;;;;;15.63;nan;100497.38;5062841;28;20028;-76
2023/06/19 04:39:05;;;;;;;21.73;11.63;;;;;;;15.70;nan;100503.31;5062632;28;20017;-76
2023/06/19 04:41:30;;;;;;;20.98;11.88;;;;;;;15.78;nan;100504.66;5063200;28;20810;-76
2023/06/19 04:43:56;;;;;;;18.50;10.90;;;;;;;15.88;nan;100512.72;5063110;28;20025;-74
2023/06/19 04:46:21;;;;;;;18.70;11.02;;;;;;;15.93;nan;100504.78;5043429;28;20465;-73
2023/06/19 04:48:50;;;;;;;22.55;11.55;;;;;;;16.00;nan;100509.84;5043501;28;20573;-73
2023/06/19 04:51:21;;;;;;;18.20;10.88;;;;;;;16.12;nan;100510.44;5058034;28;20885;-74
2023/06/19 04:53:48;;;;;;;15.48;10.63;;;;;;;16.28;nan;100521.91;5047393;28;20032;-74
2023/06/19 04:56:14;;;;;;;15.93;10.18;;;;;;;16.23;nan;100498.78;5061241;28;20059;-74
2023/06/19 04:58:45;;;;;;;12.93;9.70;;;;;;;16.43;nan;100527.31;5062274;28;20103;-75
2023/06/19 05:01:14;;;;;;;13.18;8.98;;;;;;;16.42;nan;100515.06;5063531;28;20674;-73
2023/06/19 05:03:40;;;;;;;19.67;8.93;;;;;;;16.55;nan;100535.06;5061247;28;20054;-72
2023/06/19 05:06:05;;;;;;;22.67;9.40;;;;;;;16.52;nan;100527.59;5063140;28;20080;-73
2023/06/19 05:08:30;;;;;;;12.23;8.35;;;;;;;16.59;nan;100528.97;5042929;28;20070;-72
2023/06/19 05:10:57;;;;;;;13.10;8.82;;;;;;;16.63;nan;100537.19;5063333;28;20021;-73
2023/06/19 05:13:23;;;;;;;17.88;9.25;;;;;;;16.72;nan;100535.63;5045344;28;20108;-71
2023/06/19 05:15:49;;;;;;;13.20;9.73;;;;;;;16.73;nan;100531.09;5059881;28;20446;-71
2023/06/19 05:18:15;;;;;;;15.00;8.80;;;;;;;16.78;nan;100539.94;5063683;28;20513;-72
2023/06/19 05:20:40;;;;;;;15.45;8.20;;;;;;;16.85;nan;100545.00;5064827;28;20032;-72
2023/06/19 05:23:06;;;;;;;13.50;8.68;;;;;;;16.93;nan;100555.13;5063462;28;20021;-72
2023/06/19 05:25:31;;;;;;;12.70;9.45;;;;;;;16.96;nan;100545.81;5060466;28;20029;-72
2023/06/19 05:27:56;;;;;;;10.52;8.35;;;;;;;16.99;nan;100534.66;5046040;28;20024;-73
2023/06/19 05:30:22;;;;;;;14.73;9.27;;;;;;;17.07;nan;100546.63;5063804;28;20078;-73
2023/06/19 05:32:47;;;;;;;16.10;8.63;;;;;;;17.13;nan;100534.94;5059982;28;20383;-72
2023/06/19 05:35:12;;;;;;;16.10;8.98;;;;;;;17.27;nan;100551.19;5062733;28;20039;-73
2023/06/19 05:37:39;;;;;;;14.38;8.98;;;;;;;17.31;nan;100547.72;5063138;28;20033;-74
2023/06/19 05:40:06;;;;;;;13.93;8.75;;;;;;;17.31;nan;100538.94;5042194;28;20479;-75
2023/06/19 05:42:31;;;;;;;12.05;8.98;;;;;;;17.44;nan;100549.84;5058846;28;20043;-73
2023/06/19 05:44:57;;;;;;;16.05;9.32;;;;;;;17.63;nan;100559.97;5067316;28;20029;-74
2023/06/19 05:47:25;;;;;;;12.48;8.73;;;;;;;17.70;nan;100552.50;5047232;28;20017;-73
2023/06/19 05:49:51;;;;;;;13.07;9.10;;;;;;;17.93;nan;100563.66;5061508;28;20622;-74
2023/06/19 05:52:16;;;;;;;17.17;9.10;;;;;;;17.95;nan;100557.00;5063181;28;20107;-74
2023/06/19 05:54:42;;;;;;;10.85;8.02;;;;;;;18.02;nan;100556.72;5045448;28;20052;-73
2023/06/19 05:57:07;;;;;;;12.95;8.43;;;;;;;18.06;nan;100557.78;5065680;28;20079;-72
2023/06/19 05:59:33;;;;;;;17.45;9.30;;;;;;;18.19;nan;100559.06;5061338;28;20044;-72
2023/06/19 06:01:58;;;;;;;21.33;9.93;;;;;;;18.28;nan;100568.09;5060158;28;20053;-73
2023/06/19 06:04:24;;;;;;;15.65;9.15;;;;;;;18.40;nan;100571.25;5061716;28;20025;-73
2023/06/19 06:06:49;;;;;;;12.77;8.52;;;;;;;18.51;nan;100569.38;5040424;28;20052;-74
2023/06/19 06:09:16;;;;;;;13.75;8.60;;;;;;;18.61;nan;100573.84;5043504;28;20035;-72
2023/06/19 06:11:45;;;;;;;21.15;8.95;;;;;;;18.68;nan;100583.16;5045488;28;20070;-72
2023/06/19 06:14:10;;;;;;;12.32;8.57;;;;;;;18.73;nan;100578.88;5064059;28;20086;-72
2023/06/19 06:16:36;;;;;;;16.42;9.35;;;;;;;18.86;nan;100578.28;5041519;28;20036;-71
2023/06/19 06:19:01;;;;;;;16.75;9.15;;;;;;;19.01;nan;100582.72;5059920;28;20059;-71
2023/06/19 06:21:26;;;;;;;15.48;9.30;;;;;;;19.11;nan;100580.78;5058541;28;20115;-72
2023/06/19 06:23:54;;;;;;;16.55;8.95;;;;;;;19.19;nan;100578.59;5039576;28;20029;-74
2023/06/19 06:26:19;;;;;;;15.68;8.45;;;;;;;19.29;nan;100579.31;5063724;28;20111;-74
2023/06/19 06:28:44;;;;;;;14.13;9.10;;;;;;;19.45;nan;100581.88;5048437;28;20103;-74
2023/06/19 06:31:10;;;;;;;12.93;9.23;;;;;;;19.50;nan;100585.31;5066009;28;20020;-74
2023/06/19 06:33:35;;;;;;;13.95;8.73;;;;;;;19.59;nan;100584.72;5047955;28;20036;-73
2023/06/19 06:36:01;;;;;;;12.43;8.63;;;;;;;19.76;nan;100577.09;5041202;28;20400;-72
2023/06/19 06:38:26;;;;;;;17.58;8.90;;;;;;;19.85;nan;100583.44;5061266;28;20025;-74
2023/06/19 06:40:52;;;;;;;12.93;8.30;;;;;;;20.05;nan;100584.31;5062447;28;20092;-74
2023/06/19 06:43:17;;;;;;;14.50;8.50;;;;;;;20.07;nan;100582.16;5067807;28;20112;-76
2023/06/19 06:45:42;;;;;;;11.27;8.23;;;;;;;20.24;nan;100590.50;5064769;28;20023;-76
2023/06/19 06:48:08;;;;;;;19.20;8.88;;;;;;;20.32;nan;100603.25;5045389;28;20095;-75
2023/06/19 06:50:34;;;;;;;13.40;7.68;;;;;;;20.35;nan;100596.53;5063238;28;20415;-75
2023/06/19 06:53:00;;;;;;;15.13;7.70;;;;;;;20.51;nan;100591.78;5063441;28;20108;-74
2023/06/19 06:55:25;;;;;;;14.20;7.30;;;;;;;20.60;nan;100590.13;5064797;28;20073;-73
2023/06/19 06:57:51;;;;;;;15.27;8.73;;;;;;;20.70;nan;100591.84;5066323;28;20021;-74
2023/06/19 07:00:18;;;;;;;15.88;7.57;;;;;;;20.71;nan;100588.09;5046377;28;20085;-73
2023/06/19 07:02:44;;;;;;;13.13;7.80;;;;;;;20.88;nan;100593.75;5061619;28;20041;-73
2023/06/19 07:05:10;;;;;;;17.35;7.60;;;;;;;20.96;nan;100597.66;5048325;28;20017;-73
2023/06/19 07:07:36;;;;;;;10.70;7.20;;;;;;;20.96;nan;100593.09;5064234;28;20032;-73
2023/06/19 07:10:01;;;;;;;12.90;7.57;;;;;;;20.94;nan;100584.56;5065335;28;20508;-72
2023/06/19 07:12:27;;;;;;;12.68;7.18;;;;;;;21.06;nan;100589.47;5030527;28;20020;-72
2023/06/19 07:14:56;;;;;;;13.10;7.43;;;;;;;21.20;nan;100589.53;5047980;28;20458;-72
2023/06/19 07:17:22;;;;;;;16.30;7.75;;;;;;;21.31;nan;100592.84;5045886;28;20584;-73
2023/06/19 07:19:47;;;;;;;9.90;6.85;;;;;;;21.38;nan;100586.06;5047605;28;20032;-75
2023/06/19 07:22:14;;;;;;;11.23;6.53;;;;;;;21.25;nan;100558.09;5063263;28;20029;-75
2023/06/19 07:24:42;;;;;;;10.18;6.55;;;;;;;21.43;nan;100580.63;5063009;28;20028;-75
2023/06/19 07:27:07;;;;;;;18.65;6.90;;;;;;;21.61;nan;100591.59;5064911;28;20036;-75
2023/06/19 07:29:33;;;;;;;12.65;6.40;;;;;;;21.66;nan;100594.19;5064945;28;20033;-76
2023/06/19 07:31:58;;;;;;;10.80;6.45;;;;;;;21.72;nan;100601.06;5064606;28;20402;-74
2023/06/19 07:34:24;;;;;;;10.38;6.70;;;;;;;21.74;nan;100603.44;5064521;28;20025;-73
2023/06/19 07:36:50;;;;;;;13.18;6.80;;;;;;;21.74;nan;100606.09;5063586;28;20115;-73
2023/06/19 07:39:15;;;;;;;11.88;6.30;;;;;;;21.80;nan;100604.94;5047193;28;20071;-72
2023/06/19 07:41:41;;;;;;;8.20;6.32;;;;;;;21.84;nan;100603.28;5066219;28;20024;-73
2023/06/19 07:44:06;;;;;;;7.75;5.80;;;;;;;21.96;nan;100613.53;5064816;28;20044;-73
2023/06/19 07:46:31;;;;;;;13.30;6.78;;;;;;;21.96;nan;100595.53;5064921;28;20091;-73
2023/06/19 07:48:57;;;;;;;10.27;6.15;;;;;;;22.11;nan;100599.81;5047357;28;20481;-73
2023/06/19 07:51:22;;;;;;;7.47;6.13;;;;;;;22.28;nan;100604.63;5064692;28;20104;-73
2023/06/19 07:53:47;;;;;;;9.13;6.22;;;;;;;22.33;nan;100607.19;5066072;28;20020;-73
2023/06/19 07:56:13;;;;;;;10.15;5.88;;;;;;;22.45;nan;100610.16;5062388;28;20036;-73
2023/06/19 07:58:38;;;;;;;9.13;5.95;;;;;;;22.52;nan;100609.78;5061490;28;20495;-73
2023/06/19 08:01:03;;;;;;;12.68;5.95;;;;;;;22.57;nan;100606.19;5062177;28;20052;-73
2023/06/19 08:03:29;;;;;;;10.98;5.90;;;;;;;22.63;nan;100610.38;5044653;28;20369;-73
2023/06/19 08:05:55;;;;;;;6.93;5.60;;;;;;;22.81;nan;100611.31;5063836;28;20024;-73
2023/06/19 08:08:20;;;;;;;7.13;5.80;;;;;;;22.82;nan;100610.22;5064219;28;20413;-73
2023/06/19 08:10:46;;;;;;;10.27;6.38;;;;;;;22.90;nan;100614.88;5063931;28;20073;-73
2023/06/19 08:13:11;;;;;;;9.90;5.60;;;;;;;22.90;nan;100607.63;5061218;28;20326;-73
2023/06/19 08:15:37;;;;;;;7.72;6.32;;;;;;;22.97;nan;100607.22;5062634;28;20458;-74
2023/06/19 08:18:03;;;;;;;9.98;5.55;;;;;;;22.98;nan;100599.94;5062757;28;20474;-72
2023/06/19 08:20:28;;;;;;;9.63;5.93;;;;;;;23.07;nan;100609.69;5037122;28;20040;-73
2023/06/19 08:22:53;;;;;;;8.52;5.30;;;;;;;23.13;nan;100616.53;5064072;28;20025;-73
2023/06/19 08:25:19;;;;;;;8.63;5.53;;;;;;;23.25;nan;100617.88;5061969;28;20056;-73
2023/06/19 08:27:45;;;;;;;9.77;5.90;;;;;;;23.28;nan;100609.22;5064287;28;20083;-73
2023/06/19 08:30:10;;;;;;;8.50;5.68;;;;;;;23.33;nan;100606.41;5038441;28;20024;-73
2023/06/19 08:32:36;;;;;;;9.55;5.65;;;;;;;23.46;nan;100610.91;5062042;28;20024;-73
2023/06/19 08:35:02;;;;;;;10.02;5.63;;;;;;;23.50;nan;100611.91;5064237;28;20024;-73
2023/06/19 08:37:28;;;;;;;12.85;6.18;;;;;;;23.57;nan;100612.25;5061831;28;20063;-73
2023/06/19 08:39:55;;;;;;;8.60;6.00;;;;;;;23.63;nan;100609.44;5044883;28;20056;-73
2023/06/19 08:42:20;;;;;;;9.68;6.45;;;;;;;23.69;nan;100602.84;5065390;28;20017;-73
2023/06/19 08:44:46;;;;;;;9.73;5.72;;;;;;;23.78;nan;100609.09;5064677;28;20031;-72
2023/06/19 08:47:11;;;;;;;8.15;5.43;;;;;;;23.88;nan;100611.50;5043974;28;20085;-73
2023/06/19 08:49:37;;;;;;;9.40;5.88;;;;;;;23.95;nan;100611.06;5063977;28;20111;-72
2023/06/19 08:52:03;;;;;;;10.80;5.63;;;;;;;24.04;nan;100613.78;5064199;28;20028;-74
2023/06/19 08:54:29;;;;;;;10.93;5.88;;;;;;;24.11;nan;100604.19;5062530;28;20032;-74
2023/06/19 08:56:54;;;;;;;8.52;5.65;;;;;;;24.16;nan;100601.34;5062782;28;20039;-72
2023/06/19 08:59:21;;;;;;;13.77;5.25;;;;;;;24.21;nan;100600.41;5063543;28;20039;-72
2023/06/19 09:01:54;;;;;;;8.95;6.32;;;;;;;24.30;nan;100597.75;5061408;28;20135;-72
2023/06/19 09:04:28;;;;;;;11.98;5.70;;;;;;;24.38;nan;100600.47;5081695;28;20457;-72
2023/06/19 09:07:03;;;;;;;10.75;5.90;;;;;;;24.47;nan;100602.41;5082318;28;20020;-72
2023/06/19 09:09:29;;;;;;;9.15;6.25;;;;;;;24.53;nan;100598.47;5081965;28;20023;-72
2023/06/19 09:12:04;;;;;;;8.25;5.93;;;;;;;24.62;nan;100593.91;5080916;28;20571;-72
2023/06/19 09:14:39;;;;;;;7.90;5.53;;;;;;;24.68;nan;100592.63;5081207;28;20055;-73
2023/06/19 09:17:07;;;;;;;8.50;5.25;;;;;;;24.69;nan;100583.44;5080485;28;20034;-73
2023/06/19 09:19:35;;;;;;;11.32;6.15;;;;;;;24.82;nan;100590.56;5084740;28;20039;-73
2023/06/19 09:22:05;;;;;;;8.70;5.80;;;;;;;24.89;nan;100592.81;5082431;28;20481;-73
2023/06/19 09:24:36;;;;;;;8.80;6.28;;;;;;;24.96;nan;100589.63;5073555;28;20085;-72
2023/06/19 09:27:14;;;;;;;10.02;5.68;;;;;;;25.00;nan;100590.59;5082365;28;20032;-73
2023/06/19 09:29:44;;;;;;;13.48;5.85;;;;;;;25.02;nan;100594.56;5080777;28;20134;-73
2023/06/19 09:32:28;;;;;;;11.30;5.78;;;;;;;25.12;nan;100590.75;5083105;28;20370;-73
2023/06/19 09:34:55;;;;;;;8.73;5.88;;;;;;;25.13;nan;100592.31;5080674;28;20024;-74
2023/06/19 09:37:26;;;;;;;8.65;5.45;;;;;;;25.10;nan;100578.72;5083965;28;20020;-74
2023/06/19 09:39:57;;;;;;;6.95;5.50;;;;;;;25.11;nan;100583.75;5083771;28;20031;-73
2023/06/19 09:42:33;;;;;;;9.57;6.20;;;;;;;25.21;nan;100582.66;5083479;28;20027;-73
2023/06/19 09:45:04;;;;;;;12.93;6.47;;;;;;;25.28;nan;100585.69;5080697;28;20032;-73
2023/06/19 09:47:34;;;;;;;11.40;6.63;;;;;;;25.42;nan;100582.81;5079615;28;20111;-74
2023/06/19 09:50:01;;;;;;;10.23;6.65;;;;;;;25.53;nan;100591.34;5082787;28;20032;-74
2023/06/19 09:52:27;;;;;;;9.82;6.40;;;;;;;25.56;nan;100586.09;5082659;28;20636;-73
2023/06/19 09:54:55;;;;;;;9.30;5.93;;;;;;;25.62;nan;100579.44;5082316;28;20033;-73
2023/06/19 09:57:20;;;;;;;15.15;6.18;;;;;;;25.63;nan;100582.91;5082110;28;20094;-73
2023/06/19 09:59:49;;;;;;;7.93;5.75;;;;;;;25.68;nan;100574.66;5081626;28;20127;-73
2023/06/19 10:02:16;;;;;;;12.80;5.88;;;;;;;25.76;nan;100578.44;5068975;28;20040;-72
2023/06/19 10:04:49;;;;;;;7.80;6.20;;;;;;;25.78;nan;100568.91;5066303;28;20033;-73
2023/06/19 10:07:27;;;;;;;9.23;5.57;;;;;;;25.89;nan;100574.78;5062944;28;20052;-73
2023/06/19 10:10:01;;;;;;;10.65;5.88;;;;;;;25.97;nan;100582.03;5067103;28;20023;-73
2023/06/19 10:12:44;;;;;;;12.38;6.25;;;;;;;26.00;nan;100567.09;5065652;28;20028;-71
2023/06/19 10:15:18;;;;;;;8.20;5.65;;;;;;;26.07;nan;100567.38;5044729;28;20103;-72
2023/06/19 10:18:07;;;;;;;7.45;5.60;;;;;;;26.08;nan;100564.34;5064523;28;20024;-72
2023/06/19 10:20:37;;;;;;;7.00;4.90;;;;;;;26.15;nan;100563.84;5041921;28;20032;-74
2023/06/19 10:23:06;;;;;;;12.02;5.95;;;;;;;26.32;nan;100565.66;5048092;28;20273;-73
2023/06/19 10:25:37;;;;;;;7.95;5.80;;;;;;;26.36;nan;100561.16;5063056;28;20040;-73
2023/06/19 10:28:07;;;;;;;12.38;6.68;;;;;;;26.48;nan;100557.75;5063155;28;20024;-72
2023/06/19 10:30:34;;;;;;;7.72;5.50;;;;;;;26.50;nan;100561.72;5045880;28;20040;-73
2023/06/19 10:33:02;;;;;;;15.55;5.80;;;;;;;26.54;nan;100559.19;5063477;28;20035;-73
2023/06/19 10:35:28;;;;;;;7.90;5.22;;;;;;;26.64;nan;100556.09;5066330;28;20383;-72
2023/06/19 10:37:54;;;;;;;6.43;5.45;;;;;;;26.66;nan;100520.66;5063907;28;20058;-72
2023/06/19 10:40:20;;;;;;;7.55;5.10;;;;;;;26.83;nan;100549.44;5067237;28;20063;-73
2023/06/19 10:42:46;;;;;;;7.30;4.80;;;;;;;26.84;nan;100545.59;5063492;28;20052;-73
2023/06/19 10:45:13;;;;;;;8.57;5.10;;;;;;;26.94;nan;100548.69;5066361;28;20079;-72
2023/06/19 10:47:40;;;;;;;9.32;5.60;;;;;;;26.99;nan;100542.28;5044462;28;20028;-73
2023/06/19 10:50:10;;;;;;;6.03;4.60;;;;;;;27.05;nan;100538.25;5065480;28;20811;-72
2023/06/19 10:52:35;;;;;;;6.30;4.45;;;;;;;27.11;nan;100536.16;5063223;28;20017;-73
2023/06/19 10:55:03;;;;;;;6.20;4.53;;;;;;;27.22;nan;100542.72;5047767;28;20036;-73
2023/06/19 10:57:30;;;;;;;4.90;4.37;;;;;;;27.15;nan;100543.25;5063277;28;20032;-72
2023/06/19 10:59:56;;;;;;;6.03;4.80;;;;;;;27.25;nan;100539.38;5046708;28;20563;-73
2023/06/19 11:02:22;;;;;;;8.75;4.85;;;;;;;27.30;nan;100530.25;5062561;28;20056;-73
2023/06/19 11:04:48;;;;;;;6.05;4.60;;;;;;;27.30;nan;100530.25;5064415;28;20570;-73
2023/06/19 11:07:14;;;;;;;7.00;4.50;;;;;;;27.36;nan;100537.00;5046639;28;20044;-72
2023/06/19 11:09:39;;;;;;;5.30;4.18;;;;;;;27.39;nan;100527.44;5048548;28;20375;-74
2023/06/19 11:12:07;;;;;;;4.65;4.10;;;;;;;27.33;nan;100530.38;5062898;28;20719;-72
2023/06/19 11:14:39;;;;;;;6.25;4.35;;;;;;;27.43;nan;100523.72;5063196;28;20079;-72
2023/06/19 11:17:07;;;;;;;8.57;5.22;;;;;;;27.51;nan;100524.75;5044194;28;20444;-73
2023/06/19 11:19:33;;;;;;;6.10;5.18;;;;;;;27.55;nan;100523.75;5044773;28;20150;-73
2023/06/19 11:22:03;;;;;;;6.70;4.70;;;;;;;27.61;nan;100523.53;5044238;28;20039;-73
2023/06/19 11:24:29;;;;;;;11.23;4.53;;;;;;;27.62;nan;100515.09;5062733;28;20107;-73
2023/06/19 11:26:57;;;;;;;8.85;4.35;;;;;;;27.73;nan;100523.56;5063811;28;20037;-73
2023/06/19 11:29:28;;;;;;;7.20;4.45;;;;;;;27.77;nan;100506.31;5063556;28;20044;-73
2023/06/19 11:32:08;;;;;;;6.28;4.22;;;;;;;27.84;nan;100507.66;5063638;28;20499;-73